• Join FlightAware (Why Join?)
  • Login
  • US Flag 
07:11AM EDT


 

Airport Tracker/Info


-or-


 

Live Flight TrackerFlight Track Log ✈ N213SR ✈ 22-Oct-2013 ✈ KCRG - KVNC

Flight Track Log - Related Links

Times and Time Zones

All times are in EDT time to prevent confusion due to time zone crossing. See the N213SR flight status page for this flight to view local times or setup timezone preferences in your user account.

Time Position Orientation Groundspeed Altitude Reporting Facility
EDT Latitude Longitude Course Direction KTS MPH feet Rate Location/Type
09:51AM 30.3364 -81.5086 279° West 86 99 600  Level Jacksonville Center
09:53AM 30.3453 -81.5736 279° West 146 168 2,100 840 Climbing Jacksonville Center
09:54AM 30.3269 -81.6050 236° Southwest 136 157 3,000 900 Climbing Jacksonville Center
09:54AM 30.2956 -81.6175 199° South 131 151 3,900 900 Climbing Jacksonville Center
09:55AM 30.2625 -81.6372 207° Southwest 131 151 4,800 780 Climbing Jacksonville Center
09:57AM 30.2272 -81.6569 206° Southwest 123 142 5,600 660 Climbing Jacksonville Center
09:58AM 30.1981 -81.6764 210° Southwest 123 142 6,300 540 Climbing Jacksonville Center
09:59AM 30.1628 -81.6939 203° Southwest 128 147 6,800 420 Climbing Jacksonville Center
09:59AM 30.1358 -81.7086 205° Southwest 134 154 7,100 120 Climbing Jacksonville Center
10:01AM 30.0900 -81.7306 203° Southwest 150 173 7,100  Level Jacksonville Center
10:01AM 30.0608 -81.7478 207° Southwest 145 167 7,200  Climbing Jacksonville Center
10:03AM 30.0153 -81.7747 207° Southwest 146 168 7,200 -60 Level Jacksonville Center
10:04AM 29.9778 -81.7872 196° South 147 169 7,100 -60 Descending Jacksonville Center
10:05AM 29.9425 -81.7947 190° South 146 168 7,100  Level Jacksonville Center
10:06AM 29.9006 -81.8025 189° South 144 166 7,100  Level Jacksonville Center
10:07AM 29.8633 -81.8147 196° South 141 162 7,200  Climbing Jacksonville Center
10:08AM 29.8278 -81.8272 197° South 145 167 7,200  Level Jacksonville Center
10:09AM 29.7839 -81.8347 188° South 146 168 7,200  Level Jacksonville Center
10:10AM 29.7444 -81.8472 195° South 149 171 7,200  Level Jacksonville Center
10:11AM 29.7050 -81.8547 189° South 149 171 7,200  Level Jacksonville Center
10:12AM 29.6653 -81.8672 195° South 148 170 7,200  Level Jacksonville Center
10:13AM 29.6236 -81.8772 192° South 147 169 7,200  Level Jacksonville Center
10:14AM 29.5819 -81.8894 194° South 147 169 7,200  Level Jacksonville Center
10:15AM 29.5403 -81.9019 195° South 146 168 7,200  Level Jacksonville Center
10:16AM 29.5028 -81.9094 190° South 146 168 7,200  Level Jacksonville Center
10:17AM 29.4653 -81.9217 196° South 145 167 7,200  Level Jacksonville Center
10:18AM 29.4236 -81.9317 192° South 145 167 7,200  Level Jacksonville Center
10:19AM 29.3861 -81.9417 193° South 145 167 7,200  Level Jacksonville Center
10:20AM 29.3403 -81.9539 193° South 144 166 7,200 -60 Level Jacksonville Center
10:21AM 29.3008 -81.9614 189° South 143 165 7,100 -60 Descending Jacksonville Center
10:22AM 29.2633 -81.9736 196° South 141 162 7,100  Level Jacksonville Center
10:23AM 29.2278 -81.9836 194° South 141 162 7,200  Climbing Jacksonville Center
10:24AM 29.1883 -81.9936 192° South 140 161 7,100  Descending Jacksonville Center
10:25AM 29.1467 -82.0058 194° South 140 161 7,200  Climbing Jacksonville Center
10:26AM 29.1089 -82.0133 190° South 140 161 7,100  Descending Jacksonville Center
10:27AM 29.0694 -82.0231 192° South 141 162 7,200  Climbing Jacksonville Center
10:28AM 29.0339 -82.0328 193° South 140 161 7,200 -60 Level Jacksonville Center
10:29AM 28.9903 -82.0450 194° South 139 160 7,100  Descending Jacksonville Center
10:30AM 28.9528 -82.0550 193° South 140 161 7,200  Climbing Jacksonville Center
10:31AM 28.9131 -82.0625 189° South 142 163 7,200  Level Jacksonville Center
10:32AM 28.8778 -82.0744 197° South 141 162 7,200  Level Jacksonville Center
10:33AM 28.8381 -82.0844 192° South 140 161 7,200  Level Jacksonville Center
10:34AM 28.7922 -82.0967 193° South 142 163 7,200  Level Jacksonville Center
10:36AM 28.7000 -82.1167 191° South 141 162 7,200  Level Tampa TRACON
10:37AM 28.6667 -82.1333 204° Southwest 141 162 7,200 -60 Level Tampa TRACON
10:38AM 28.6333 -82.1333 180° South 150 173 7,100  Descending Tampa TRACON
10:39AM 28.5833 -82.1167 164° South 146 168 7,200  Climbing Tampa TRACON
10:40AM 28.5500 -82.1167 180° South 142 163 7,200  Level Tampa TRACON
10:41AM 28.5167 -82.1000 156° South 143 165 7,200 -60 Level Tampa TRACON
10:42AM 28.4667 -82.1000 180° South 139 160 7,100  Descending Tampa TRACON
10:43AM 28.4333 -82.1000 180° South 140 161 7,200  Climbing Tampa TRACON
10:44AM 28.4000 -82.1167 204° Southwest 139 160 7,100 -60 Descending Tampa TRACON
10:45AM 28.3667 -82.1167 180° South 137 158 7,100  Level Tampa TRACON
10:46AM 28.3167 -82.1333 196° South 138 159 7,100  Level Tampa TRACON
10:47AM 28.2833 -82.1333 180° South 139 160 7,200  Climbing Tampa TRACON
10:48AM 28.2500 -82.1500 204° Southwest 141 162 7,100  Descending Tampa TRACON
10:49AM 28.2167 -82.1667 204° Southwest 139 160 7,200  Climbing Tampa TRACON
10:50AM 28.1833 -82.1667 180° South 139 160 7,200 -120 Level Tampa TRACON
10:51AM 28.1333 -82.1833 196° South 140 161 7,000 -420 Descending Tampa TRACON
10:52AM 28.1000 -82.1833 180° South 154 177 6,400 -420 Descending Tampa TRACON
10:53AM 28.0500 -82.2000 196° South 155 178 6,200 -180 Descending Tampa TRACON
10:54AM 28.0167 -82.2167 204° Southwest 146 168 6,100 -60 Descending Tampa TRACON
10:55AM 27.9667 -82.2167 180° South 143 165 6,100  Level Tampa TRACON
10:56AM 27.9333 -82.2333 204° Southwest 142 163 6,100  Level Tampa TRACON
10:57AM 27.9000 -82.2333 180° South 142 163 6,100  Level Tampa TRACON
10:58AM 27.8500 -82.2500 196° South 143 165 6,100  Level Tampa TRACON
10:59AM 27.8167 -82.2500 180° South 145 167 6,100  Level Tampa TRACON
11:00AM 27.7833 -82.2667 204° Southwest 143 165 6,100  Level Tampa TRACON
11:01AM 27.7333 -82.2833 196° South 145 167 6,200  Climbing Tampa TRACON
11:02AM 27.7000 -82.2833 180° South 145 167 6,100 -60 Descending Tampa TRACON
11:03AM 27.6667 -82.3000 204° Southwest 146 168 6,100  Level Tampa TRACON
11:04AM 27.6333 -82.3000 180° South 146 168 6,200 -60 Climbing Tampa TRACON
11:05AM 27.5833 -82.3167 196° South 146 168 6,000 -420 Descending Tampa TRACON
11:06AM 27.5333 -82.3333 196° South 161 185 5,400 -540 Descending Tampa TRACON
11:07AM 27.5000 -82.3333 180° South 162 186 4,900 -540 Descending Tampa TRACON
11:08AM 27.4500 -82.3500 196° South 161 185 4,400 -600 Descending Tampa TRACON
11:09AM 27.4167 -82.3500 180° South 164 189 3,800 -600 Descending Tampa TRACON
11:10AM 27.3667 -82.3667 196° South 165 190 3,200 -360 Descending Tampa TRACON
11:11AM 27.3167 -82.3833 196° South 156 180 3,100 -60 Descending Tampa TRACON
11:12AM 27.2833 -82.3833 180° South 147 169 3,100  Level Tampa TRACON